Horton, Kentucky
Current Conditions -  °F | °C
As of 9:55 PM on Saturday 22 Nov 2014 (Local Time) from K2I0 Reporting Station
Scattered Clouds Scattered Clouds  
Wind Chill: 55°   Ceiling: Unl
Heat Index: 55°   Visibility: 10mi
Dew Point: 37°   Wind: 8mph
Humidity: 51%   Direction: 180°S
Pressure: 30.03"   Gusts: NA
Location:  37.3559°N, 86.8747°W
Report Text: K2I0 230355Z AUTO 18007KT 10SM SCT075 SCT110 13/03 A3003 RMK AO2 T01280030
Loading
Personal Weather Stations






























Interactive Weather Map New forecast layout! Learn more

10-Day Weather Forecast

Advertisements
Track Severe Weather on mobile